sensor_id;sensor_type;location;lat;lon;timestamp;P1;durP1;ratioP1;P2;durP2;ratioP2
4311;SDS011;2169;49.086;9.284;2023-02-28T00:00:16;3.05;;;1.38;;
4311;SDS011;2169;49.086;9.284;2023-02-28T00:02:43;1.30;;;1.17;;
4311;SDS011;2169;49.086;9.284;2023-02-28T00:05:15;3.20;;;2.90;;
4311;SDS011;2169;49.086;9.284;2023-02-28T00:07:44;2.90;;;0.88;;
4311;SDS011;2169;49.086;9.284;2023-02-28T00:10:12;6.30;;;1.70;;
4311;SDS011;2169;49.086;9.284;2023-02-28T00:12:44;1.25;;;1.25;;
4311;SDS011;2169;49.086;9.284;2023-02-28T00:15:11;3.50;;;1.58;;
4311;SDS011;2169;49.086;9.284;2023-02-28T00:17:37;2.45;;;1.20;;
4311;SDS011;2169;49.086;9.284;2023-02-28T00:20:05;2.40;;;1.90;;
4311;SDS011;2169;49.086;9.284;2023-02-28T00:22:36;0.90;;;0.90;;
4311;SDS011;2169;49.086;9.284;2023-02-28T00:25:04;1.60;;;1.50;;
4311;SDS011;2169;49.086;9.284;2023-02-28T00:27:33;0.60;;;0.60;;
4311;SDS011;2169;49.086;9.284;2023-02-28T00:29:59;1.75;;;1.65;;
4311;SDS011;2169;49.086;9.284;2023-02-28T00:32:27;1.02;;;1.02;;
4311;SDS011;2169;49.086;9.284;2023-02-28T00:34:53;1.50;;;1.50;;
4311;SDS011;2169;49.086;9.284;2023-02-28T00:37:20;1.10;;;1.10;;
4311;SDS011;2169;49.086;9.284;2023-02-28T00:39:48;2.67;;;2.03;;
4311;SDS011;2169;49.086;9.284;2023-02-28T00:42:15;0.80;;;0.80;;
4311;SDS011;2169;49.086;9.284;2023-02-28T00:44:42;8.00;;;1.63;;
4311;SDS011;2169;49.086;9.284;2023-02-28T00:47:08;1.70;;;1.70;;
4311;SDS011;2169;49.086;9.284;2023-02-28T00:49:35;3.47;;;2.22;;
4311;SDS011;2169;49.086;9.284;2023-02-28T00:52:02;1.85;;;1.33;;
4311;SDS011;2169;49.086;9.284;2023-02-28T00:54:29;1.55;;;1.45;;
4311;SDS011;2169;49.086;9.284;2023-02-28T00:56:57;1.33;;;1.33;;
4311;SDS011;2169;49.086;9.284;2023-02-28T00:59:24;1.25;;;1.25;;
4311;SDS011;2169;49.086;9.284;2023-02-28T01:01:51;0.95;;;0.90;;
4311;SDS011;2169;49.086;9.284;2023-02-28T01:04:18;1.35;;;1.23;;
4311;SDS011;2169;49.086;9.284;2023-02-28T01:06:45;0.90;;;0.90;;
4311;SDS011;2169;49.086;9.284;2023-02-28T01:09:11;1.15;;;1.15;;
4311;SDS011;2169;49.086;9.284;2023-02-28T01:11:38;3.60;;;1.50;;
4311;SDS011;2169;49.086;9.284;2023-02-28T01:14:08;1.17;;;1.17;;
4311;SDS011;2169;49.086;9.284;2023-02-28T01:16:34;2.13;;;1.65;;
4311;SDS011;2169;49.086;9.284;2023-02-28T01:19:01;4.43;;;1.02;;
4311;SDS011;2169;49.086;9.284;2023-02-28T01:21:28;3.92;;;1.70;;
4311;SDS011;2169;49.086;9.284;2023-02-28T01:23:56;2.53;;;2.42;;
4311;SDS011;2169;49.086;9.284;2023-02-28T01:26:23;0.80;;;0.80;;
4311;SDS011;2169;49.086;9.284;2023-02-28T01:28:50;1.55;;;1.45;;
4311;SDS011;2169;49.086;9.284;2023-02-28T01:31:20;2.22;;;2.13;;
4311;SDS011;2169;49.086;9.284;2023-02-28T01:33:47;1.25;;;1.25;;
4311;SDS011;2169;49.086;9.284;2023-02-28T01:36:16;2.65;;;1.85;;
4311;SDS011;2169;49.086;9.284;2023-02-28T01:38:44;1.13;;;1.13;;
4311;SDS011;2169;49.086;9.284;2023-02-28T01:41:14;1.73;;;1.65;;
4311;SDS011;2169;49.086;9.284;2023-02-28T01:43:52;14.77;;;2.50;;
4311;SDS011;2169;49.086;9.284;2023-02-28T01:46:23;3.03;;;1.23;;
4311;SDS011;2169;49.086;9.284;2023-02-28T01:48:50;0.60;;;0.60;;
4311;SDS011;2169;49.086;9.284;2023-02-28T01:51:21;1.27;;;1.27;;
4311;SDS011;2169;49.086;9.284;2023-02-28T01:53:53;3.13;;;1.60;;
4311;SDS011;2169;49.086;9.284;2023-02-28T01:56:24;1.02;;;1.02;;
4311;SDS011;2169;49.086;9.284;2023-02-28T01:58:53;1.02;;;1.00;;
4311;SDS011;2169;49.086;9.284;2023-02-28T02:01:21;7.10;;;1.98;;
4311;SDS011;2169;49.086;9.284;2023-02-28T02:03:51;1.60;;;0.80;;
4311;SDS011;2169;49.086;9.284;2023-02-28T02:06:21;2.05;;;1.95;;
4311;SDS011;2169;49.086;9.284;2023-02-28T02:08:48;1.35;;;1.25;;
4311;SDS011;2169;49.086;9.284;2023-02-28T02:11:16;3.05;;;1.85;;
4311;SDS011;2169;49.086;9.284;2023-02-28T02:13:58;1.63;;;1.63;;
4311;SDS011;2169;49.086;9.284;2023-02-28T02:16:43;1.27;;;1.27;;
4311;SDS011;2169;49.086;9.284;2023-02-28T02:22:23;1.25;;;1.20;;
4311;SDS011;2169;49.086;9.284;2023-02-28T02:28:03;5.13;;;1.65;;
4311;SDS011;2169;49.086;9.284;2023-02-28T02:30:55;1.17;;;1.17;;
4311;SDS011;2169;49.086;9.284;2023-02-28T02:36:45;1.58;;;1.48;;
4311;SDS011;2169;49.086;9.284;2023-02-28T02:39:18;1.80;;;1.70;;
4311;SDS011;2169;49.086;9.284;2023-02-28T02:41:51;1.33;;;1.33;;
4311;SDS011;2169;49.086;9.284;2023-02-28T02:44:20;1.15;;;1.15;;
4311;SDS011;2169;49.086;9.284;2023-02-28T02:46:50;1.40;;;1.30;;
4311;SDS011;2169;49.086;9.284;2023-02-28T02:49:21;1.17;;;1.17;;
4311;SDS011;2169;49.086;9.284;2023-02-28T02:51:52;3.58;;;1.25;;
4311;SDS011;2169;49.086;9.284;2023-02-28T02:54:20;1.00;;;1.00;;
4311;SDS011;2169;49.086;9.284;2023-02-28T02:56:53;2.50;;;2.40;;
4311;SDS011;2169;49.086;9.284;2023-02-28T02:59:23;2.33;;;2.13;;
4311;SDS011;2169;49.086;9.284;2023-02-28T03:01:51;1.95;;;1.75;;
4311;SDS011;2169;49.086;9.284;2023-02-28T03:04:21;2.42;;;2.33;;
4311;SDS011;2169;49.086;9.284;2023-02-28T03:06:52;1.67;;;1.58;;
4311;SDS011;2169;49.086;9.284;2023-02-28T03:09:19;1.40;;;1.30;;
4311;SDS011;2169;49.086;9.284;2023-02-28T03:11:46;2.70;;;2.55;;
4311;SDS011;2169;49.086;9.284;2023-02-28T03:14:22;2.10;;;1.88;;
4311;SDS011;2169;49.086;9.284;2023-02-28T03:17:00;1.30;;;1.15;;
4311;SDS011;2169;49.086;9.284;2023-02-28T03:19:52;2.20;;;2.17;;
4311;SDS011;2169;49.086;9.284;2023-02-28T03:22:40;2.80;;;2.58;;
4311;SDS011;2169;49.086;9.284;2023-02-28T03:25:17;2.00;;;1.90;;
4311;SDS011;2169;49.086;9.284;2023-02-28T03:27:49;1.70;;;1.60;;
4311;SDS011;2169;49.086;9.284;2023-02-28T03:30:26;2.58;;;2.40;;
4311;SDS011;2169;49.086;9.284;2023-02-28T03:33:00;2.03;;;1.58;;
4311;SDS011;2169;49.086;9.284;2023-02-28T03:35:30;1.30;;;1.30;;
4311;SDS011;2169;49.086;9.284;2023-02-28T03:38:03;0.88;;;0.82;;
4311;SDS011;2169;49.086;9.284;2023-02-28T03:40:34;1.40;;;1.30;;
4311;SDS011;2169;49.086;9.284;2023-02-28T03:43:07;2.67;;;2.50;;
4311;SDS011;2169;49.086;9.284;2023-02-28T03:45:38;1.55;;;1.45;;
4311;SDS011;2169;49.086;9.284;2023-02-28T03:48:08;1.88;;;1.52;;
4311;SDS011;2169;49.086;9.284;2023-02-28T03:50:42;3.10;;;2.58;;
4311;SDS011;2169;49.086;9.284;2023-02-28T03:53:12;2.30;;;2.10;;
4311;SDS011;2169;49.086;9.284;2023-02-28T03:55:42;4.40;;;1.80;;
4311;SDS011;2169;49.086;9.284;2023-02-28T03:58:15;3.00;;;2.05;;
4311;SDS011;2169;49.086;9.284;2023-02-28T04:00:48;1.85;;;1.75;;
4311;SDS011;2169;49.086;9.284;2023-02-28T04:03:18;2.20;;;1.92;;
4311;SDS011;2169;49.086;9.284;2023-02-28T04:05:49;3.33;;;3.13;;
4311;SDS011;2169;49.086;9.284;2023-02-28T04:08:19;2.72;;;2.30;;
4311;SDS011;2169;49.086;9.284;2023-02-28T04:10:48;12.85;;;1.63;;
4311;SDS011;2169;49.086;9.284;2023-02-28T04:13:19;1.90;;;1.80;;
4311;SDS011;2169;49.086;9.284;2023-02-28T04:15:46;1.73;;;1.73;;
4311;SDS011;2169;49.086;9.284;2023-02-28T04:18:12;2.80;;;2.03;;
4311;SDS011;2169;49.086;9.284;2023-02-28T04:20:39;7.03;;;2.85;;
4311;SDS011;2169;49.086;9.284;2023-02-28T04:23:06;4.30;;;1.92;;
4311;SDS011;2169;49.086;9.284;2023-02-28T04:25:34;4.20;;;2.17;;
4311;SDS011;2169;49.086;9.284;2023-02-28T04:28:00;1.50;;;1.50;;
4311;SDS011;2169;49.086;9.284;2023-02-28T04:30:27;2.05;;;1.45;;
4311;SDS011;2169;49.086;9.284;2023-02-28T04:32:54;2.47;;;2.22;;
4311;SDS011;2169;49.086;9.284;2023-02-28T04:35:21;1.70;;;1.70;;
4311;SDS011;2169;49.086;9.284;2023-02-28T04:37:48;1.25;;;1.15;;
4311;SDS011;2169;49.086;9.284;2023-02-28T04:40:15;1.63;;;1.52;;
4311;SDS011;2169;49.086;9.284;2023-02-28T04:42:43;3.97;;;2.67;;
4311;SDS011;2169;49.086;9.284;2023-02-28T04:45:10;14.55;;;2.25;;
4311;SDS011;2169;49.086;9.284;2023-02-28T04:47:37;4.18;;;1.45;;
4311;SDS011;2169;49.086;9.284;2023-02-28T04:50:04;4.38;;;1.73;;
4311;SDS011;2169;49.086;9.284;2023-02-28T04:52:31;2.10;;;1.35;;
4311;SDS011;2169;49.086;9.284;2023-02-28T04:54:57;1.90;;;1.75;;
4311;SDS011;2169;49.086;9.284;2023-02-28T04:57:24;2.38;;;2.25;;
4311;SDS011;2169;49.086;9.284;2023-02-28T04:59:52;1.83;;;1.73;;
4311;SDS011;2169;49.086;9.284;2023-02-28T05:02:19;1.85;;;1.75;;
4311;SDS011;2169;49.086;9.284;2023-02-28T05:04:46;2.10;;;2.00;;
4311;SDS011;2169;49.086;9.284;2023-02-28T05:07:12;1.70;;;1.60;;
4311;SDS011;2169;49.086;9.284;2023-02-28T05:09:39;2.30;;;1.63;;
4311;SDS011;2169;49.086;9.284;2023-02-28T05:12:06;2.10;;;2.00;;
4311;SDS011;2169;49.086;9.284;2023-02-28T05:14:34;0.95;;;0.88;;
4311;SDS011;2169;49.086;9.284;2023-02-28T05:17:02;2.28;;;2.13;;
4311;SDS011;2169;49.086;9.284;2023-02-28T05:19:29;2.90;;;2.70;;
4311;SDS011;2169;49.086;9.284;2023-02-28T05:21:56;2.40;;;1.65;;
4311;SDS011;2169;49.086;9.284;2023-02-28T05:24:23;1.60;;;1.50;;
4311;SDS011;2169;49.086;9.284;2023-02-28T05:26:50;2.25;;;2.13;;
4311;SDS011;2169;49.086;9.284;2023-02-28T05:29:18;7.72;;;2.30;;
4311;SDS011;2169;49.086;9.284;2023-02-28T05:31:45;3.97;;;2.58;;
4311;SDS011;2169;49.086;9.284;2023-02-28T05:34:13;2.42;;;2.05;;
4311;SDS011;2169;49.086;9.284;2023-02-28T05:36:40;6.38;;;1.55;;
4311;SDS011;2169;49.086;9.284;2023-02-28T05:39:07;1.95;;;1.85;;
4311;SDS011;2169;49.086;9.284;2023-02-28T05:41:37;1.73;;;1.65;;
4311;SDS011;2169;49.086;9.284;2023-02-28T05:44:05;1.23;;;1.17;;
4311;SDS011;2169;49.086;9.284;2023-02-28T05:46:32;2.05;;;1.83;;
4311;SDS011;2169;49.086;9.284;2023-02-28T05:48:58;2.00;;;1.90;;
4311;SDS011;2169;49.086;9.284;2023-02-28T05:51:27;1.88;;;1.77;;
4311;SDS011;2169;49.086;9.284;2023-02-28T05:53:54;1.60;;;1.50;;
4311;SDS011;2169;49.086;9.284;2023-02-28T05:56:24;3.10;;;2.90;;
4311;SDS011;2169;49.086;9.284;2023-02-28T05:58:50;3.60;;;2.35;;
4311;SDS011;2169;49.086;9.284;2023-02-28T06:01:21;1.88;;;1.77;;
4311;SDS011;2169;49.086;9.284;2023-02-28T06:03:50;2.15;;;1.27;;
4311;SDS011;2169;49.086;9.284;2023-02-28T06:06:17;9.05;;;1.75;;
4311;SDS011;2169;49.086;9.284;2023-02-28T06:08:45;1.98;;;1.88;;
4311;SDS011;2169;49.086;9.284;2023-02-28T06:11:12;3.85;;;2.35;;
4311;SDS011;2169;49.086;9.284;2023-02-28T06:13:39;2.70;;;2.47;;
4311;SDS011;2169;49.086;9.284;2023-02-28T06:16:06;1.58;;;1.40;;
4311;SDS011;2169;49.086;9.284;2023-02-28T06:18:34;2.42;;;2.33;;
4311;SDS011;2169;49.086;9.284;2023-02-28T06:21:01;6.05;;;3.08;;
4311;SDS011;2169;49.086;9.284;2023-02-28T06:23:27;6.88;;;5.65;;
4311;SDS011;2169;49.086;9.284;2023-02-28T06:25:56;4.65;;;4.18;;
4311;SDS011;2169;49.086;9.284;2023-02-28T06:28:23;5.93;;;2.95;;
4311;SDS011;2169;49.086;9.284;2023-02-28T06:30:50;2.05;;;1.95;;
4311;SDS011;2169;49.086;9.284;2023-02-28T06:33:17;1.85;;;1.75;;
4311;SDS011;2169;49.086;9.284;2023-02-28T06:35:44;2.40;;;2.33;;
4311;SDS011;2169;49.086;9.284;2023-02-28T06:38:12;2.33;;;1.25;;
4311;SDS011;2169;49.086;9.284;2023-02-28T06:40:39;2.85;;;2.65;;
4311;SDS011;2169;49.086;9.284;2023-02-28T06:43:07;3.40;;;2.97;;
4311;SDS011;2169;49.086;9.284;2023-02-28T06:45:33;3.03;;;1.83;;
4311;SDS011;2169;49.086;9.284;2023-02-28T06:48:00;3.75;;;2.72;;
4311;SDS011;2169;49.086;9.284;2023-02-28T06:50:27;5.85;;;2.10;;
4311;SDS011;2169;49.086;9.284;2023-02-28T06:52:55;1.70;;;1.58;;
4311;SDS011;2169;49.086;9.284;2023-02-28T06:55:22;11.05;;;3.00;;
4311;SDS011;2169;49.086;9.284;2023-02-28T06:57:49;2.75;;;1.95;;
4311;SDS011;2169;49.086;9.284;2023-02-28T07:00:18;4.65;;;3.78;;
4311;SDS011;2169;49.086;9.284;2023-02-28T07:02:45;3.40;;;1.33;;
4311;SDS011;2169;49.086;9.284;2023-02-28T07:05:12;3.17;;;2.50;;
4311;SDS011;2169;49.086;9.284;2023-02-28T07:07:39;2.38;;;1.95;;
4311;SDS011;2169;49.086;9.284;2023-02-28T07:10:09;3.20;;;2.90;;
4311;SDS011;2169;49.086;9.284;2023-02-28T07:12:37;8.73;;;2.00;;
4311;SDS011;2169;49.086;9.284;2023-02-28T07:15:04;1.67;;;1.58;;
4311;SDS011;2169;49.086;9.284;2023-02-28T07:17:33;1.95;;;1.83;;
4311;SDS011;2169;49.086;9.284;2023-02-28T07:20:00;3.45;;;2.30;;
4311;SDS011;2169;49.086;9.284;2023-02-28T07:22:29;1.98;;;1.67;;
4311;SDS011;2169;49.086;9.284;2023-02-28T07:24:56;2.88;;;2.70;;
4311;SDS011;2169;49.086;9.284;2023-02-28T07:27:22;5.03;;;2.85;;
4311;SDS011;2169;49.086;9.284;2023-02-28T07:29:50;3.42;;;2.47;;
4311;SDS011;2169;49.086;9.284;2023-02-28T07:32:17;3.22;;;2.85;;
4311;SDS011;2169;49.086;9.284;2023-02-28T07:34:45;4.07;;;2.67;;
4311;SDS011;2169;49.086;9.284;2023-02-28T07:37:13;7.68;;;3.47;;
4311;SDS011;2169;49.086;9.284;2023-02-28T07:39:40;3.60;;;2.63;;
4311;SDS011;2169;49.086;9.284;2023-02-28T07:42:08;2.03;;;1.92;;
4311;SDS011;2169;49.086;9.284;2023-02-28T07:44:36;7.00;;;3.63;;
4311;SDS011;2169;49.086;9.284;2023-02-28T07:47:05;3.05;;;2.85;;
4311;SDS011;2169;49.086;9.284;2023-02-28T07:49:33;2.42;;;2.22;;
4311;SDS011;2169;49.086;9.284;2023-02-28T07:52:01;2.60;;;2.35;;
4311;SDS011;2169;49.086;9.284;2023-02-28T07:54:28;3.03;;;2.80;;
4311;SDS011;2169;49.086;9.284;2023-02-28T07:56:55;2.35;;;2.25;;
4311;SDS011;2169;49.086;9.284;2023-02-28T07:59:22;3.97;;;3.67;;
4311;SDS011;2169;49.086;9.284;2023-02-28T08:01:49;15.15;;;3.03;;
4311;SDS011;2169;49.086;9.284;2023-02-28T08:04:16;2.00;;;1.80;;
4311;SDS011;2169;49.086;9.284;2023-02-28T08:06:43;3.25;;;2.97;;
4311;SDS011;2169;49.086;9.284;2023-02-28T08:09:11;2.95;;;2.72;;
4311;SDS011;2169;49.086;9.284;2023-02-28T08:11:38;1.60;;;1.50;;
4311;SDS011;2169;49.086;9.284;2023-02-28T08:14:04;2.63;;;2.42;;
4311;SDS011;2169;49.086;9.284;2023-02-28T08:16:31;5.60;;;3.55;;
4311;SDS011;2169;49.086;9.284;2023-02-28T08:18:58;3.90;;;3.60;;
4311;SDS011;2169;49.086;9.284;2023-02-28T08:21:25;4.25;;;3.85;;
4311;SDS011;2169;49.086;9.284;2023-02-28T08:23:51;3.58;;;3.17;;
4311;SDS011;2169;49.086;9.284;2023-02-28T08:26:19;2.17;;;1.80;;
4311;SDS011;2169;49.086;9.284;2023-02-28T08:28:46;3.42;;;3.22;;
4311;SDS011;2169;49.086;9.284;2023-02-28T08:31:14;5.40;;;3.38;;
4311;SDS011;2169;49.086;9.284;2023-02-28T08:33:42;5.03;;;2.08;;
4311;SDS011;2169;49.086;9.284;2023-02-28T08:36:10;9.50;;;4.32;;
4311;SDS011;2169;49.086;9.284;2023-02-28T08:38:37;3.67;;;3.38;;
4311;SDS011;2169;49.086;9.284;2023-02-28T08:41:06;4.95;;;3.78;;
4311;SDS011;2169;49.086;9.284;2023-02-28T08:43:35;4.07;;;2.70;;
4311;SDS011;2169;49.086;9.284;2023-02-28T08:46:02;4.88;;;4.32;;
4311;SDS011;2169;49.086;9.284;2023-02-28T08:48:30;6.00;;;4.25;;
4311;SDS011;2169;49.086;9.284;2023-02-28T08:50:58;6.20;;;4.10;;
4311;SDS011;2169;49.086;9.284;2023-02-28T08:53:27;2.50;;;2.13;;
4311;SDS011;2169;49.086;9.284;2023-02-28T08:55:57;4.60;;;4.20;;
4311;SDS011;2169;49.086;9.284;2023-02-28T08:58:25;3.20;;;2.92;;
4311;SDS011;2169;49.086;9.284;2023-02-28T09:00:54;3.22;;;2.65;;
4311;SDS011;2169;49.086;9.284;2023-02-28T09:03:21;6.60;;;4.03;;
4311;SDS011;2169;49.086;9.284;2023-02-28T09:05:52;8.63;;;4.75;;
4311;SDS011;2169;49.086;9.284;2023-02-28T09:08:24;5.43;;;3.88;;
4311;SDS011;2169;49.086;9.284;2023-02-28T09:10:52;10.45;;;5.05;;
4311;SDS011;2169;49.086;9.284;2023-02-28T09:13:19;9.25;;;4.05;;
4311;SDS011;2169;49.086;9.284;2023-02-28T09:15:46;6.47;;;3.83;;
4311;SDS011;2169;49.086;9.284;2023-02-28T09:18:15;2.25;;;2.15;;
4311;SDS011;2169;49.086;9.284;2023-02-28T09:20:42;3.53;;;3.22;;
4311;SDS011;2169;49.086;9.284;2023-02-28T09:23:09;2.17;;;1.48;;
4311;SDS011;2169;49.086;9.284;2023-02-28T09:25:37;7.97;;;3.20;;
4311;SDS011;2169;49.086;9.284;2023-02-28T09:28:11;7.80;;;3.65;;
4311;SDS011;2169;49.086;9.284;2023-02-28T09:30:37;3.30;;;3.10;;
4311;SDS011;2169;49.086;9.284;2023-02-28T09:33:04;4.43;;;3.55;;
4311;SDS011;2169;49.086;9.284;2023-02-28T09:35:32;6.20;;;4.85;;
4311;SDS011;2169;49.086;9.284;2023-02-28T09:37:59;3.83;;;2.70;;
4311;SDS011;2169;49.086;9.284;2023-02-28T09:40:28;8.60;;;5.18;;
4311;SDS011;2169;49.086;9.284;2023-02-28T09:42:55;5.85;;;4.10;;
4311;SDS011;2169;49.086;9.284;2023-02-28T09:45:24;7.82;;;2.63;;
4311;SDS011;2169;49.086;9.284;2023-02-28T09:47:56;4.00;;;3.50;;
4311;SDS011;2169;49.086;9.284;2023-02-28T09:50:30;3.55;;;3.28;;
4311;SDS011;2169;49.086;9.284;2023-02-28T09:53:03;6.47;;;4.25;;
4311;SDS011;2169;49.086;9.284;2023-02-28T09:55:37;11.50;;;4.40;;
4311;SDS011;2169;49.086;9.284;2023-02-28T09:58:09;4.63;;;3.70;;
4311;SDS011;2169;49.086;9.284;2023-02-28T10:00:44;2.93;;;2.70;;
4311;SDS011;2169;49.086;9.284;2023-02-28T10:03:26;5.57;;;3.03;;
4311;SDS011;2169;49.086;9.284;2023-02-28T10:05:57;4.17;;;3.03;;
4311;SDS011;2169;49.086;9.284;2023-02-28T10:08:33;9.05;;;3.80;;
4311;SDS011;2169;49.086;9.284;2023-02-28T10:11:07;8.77;;;4.47;;
4311;SDS011;2169;49.086;9.284;2023-02-28T10:13:39;3.35;;;3.00;;
4311;SDS011;2169;49.086;9.284;2023-02-28T10:16:16;2.20;;;2.10;;
4311;SDS011;2169;49.086;9.284;2023-02-28T10:18:48;3.65;;;3.35;;
4311;SDS011;2169;49.086;9.284;2023-02-28T10:21:20;3.53;;;3.28;;
4311;SDS011;2169;49.086;9.284;2023-02-28T10:23:53;5.73;;;4.03;;
4311;SDS011;2169;49.086;9.284;2023-02-28T10:26:25;3.60;;;3.30;;
4311;SDS011;2169;49.086;9.284;2023-02-28T10:28:54;4.13;;;3.73;;
4311;SDS011;2169;49.086;9.284;2023-02-28T10:31:21;8.00;;;4.83;;
4311;SDS011;2169;49.086;9.284;2023-02-28T10:33:48;4.57;;;4.27;;
4311;SDS011;2169;49.086;9.284;2023-02-28T10:36:16;4.83;;;3.73;;
4311;SDS011;2169;49.086;9.284;2023-02-28T10:38:44;16.97;;;4.67;;
4311;SDS011;2169;49.086;9.284;2023-02-28T10:41:14;4.47;;;2.50;;
4311;SDS011;2169;49.086;9.284;2023-02-28T10:43:42;5.57;;;3.70;;
4311;SDS011;2169;49.086;9.284;2023-02-28T10:46:12;4.50;;;2.50;;
4311;SDS011;2169;49.086;9.284;2023-02-28T10:48:57;3.50;;;2.63;;
4311;SDS011;2169;49.086;9.284;2023-02-28T10:51:28;4.53;;;3.93;;
4311;SDS011;2169;49.086;9.284;2023-02-28T10:54:02;3.07;;;2.87;;
4311;SDS011;2169;49.086;9.284;2023-02-28T10:56:31;8.23;;;3.53;;
4311;SDS011;2169;49.086;9.284;2023-02-28T10:58:59;21.20;;;3.90;;
4311;SDS011;2169;49.086;9.284;2023-02-28T11:01:34;10.20;;;4.43;;
4311;SDS011;2169;49.086;9.284;2023-02-28T11:04:03;5.97;;;3.67;;
4311;SDS011;2169;49.086;9.284;2023-02-28T11:06:42;3.57;;;3.37;;
4311;SDS011;2169;49.086;9.284;2023-02-28T11:09:15;9.17;;;4.67;;
4311;SDS011;2169;49.086;9.284;2023-02-28T11:11:47;4.50;;;3.37;;
4311;SDS011;2169;49.086;9.284;2023-02-28T11:14:18;5.93;;;4.20;;
4311;SDS011;2169;49.086;9.284;2023-02-28T11:16:48;3.60;;;3.30;;
4311;SDS011;2169;49.086;9.284;2023-02-28T11:19:17;5.73;;;3.80;;
4311;SDS011;2169;49.086;9.284;2023-02-28T11:21:48;5.50;;;3.07;;
4311;SDS011;2169;49.086;9.284;2023-02-28T11:24:21;7.07;;;3.80;;
4311;SDS011;2169;49.086;9.284;2023-02-28T11:26:51;4.83;;;4.57;;
4311;SDS011;2169;49.086;9.284;2023-02-28T11:29:20;4.63;;;4.03;;
4311;SDS011;2169;49.086;9.284;2023-02-28T11:32:02;13.00;;;3.20;;
4311;SDS011;2169;49.086;9.284;2023-02-28T11:34:37;4.70;;;4.30;;
4311;SDS011;2169;49.086;9.284;2023-02-28T11:37:08;5.13;;;4.60;;
4311;SDS011;2169;49.086;9.284;2023-02-28T11:39:37;2.03;;;1.83;;
4311;SDS011;2169;49.086;9.284;2023-02-28T11:42:10;5.10;;;4.00;;
4311;SDS011;2169;49.086;9.284;2023-02-28T11:45:02;6.53;;;3.80;;
4311;SDS011;2169;49.086;9.284;2023-02-28T11:47:42;4.28;;;3.97;;
4311;SDS011;2169;49.086;9.284;2023-02-28T11:50:20;11.03;;;5.60;;
4311;SDS011;2169;49.086;9.284;2023-02-28T11:52:59;5.73;;;4.17;;
4311;SDS011;2169;49.086;9.284;2023-02-28T11:55:30;10.70;;;4.47;;
4311;SDS011;2169;49.086;9.284;2023-02-28T11:58:13;7.23;;;4.60;;
4311;SDS011;2169;49.086;9.284;2023-02-28T12:00:53;6.73;;;5.87;;
4311;SDS011;2169;49.086;9.284;2023-02-28T12:03:39;8.07;;;5.30;;
4311;SDS011;2169;49.086;9.284;2023-02-28T12:06:17;6.00;;;2.73;;
4311;SDS011;2169;49.086;9.284;2023-02-28T12:08:51;6.37;;;5.07;;
4311;SDS011;2169;49.086;9.284;2023-02-28T12:11:33;8.23;;;4.80;;
4311;SDS011;2169;49.086;9.284;2023-02-28T12:14:19;6.00;;;4.77;;
4311;SDS011;2169;49.086;9.284;2023-02-28T12:17:01;7.83;;;5.10;;
4311;SDS011;2169;49.086;9.284;2023-02-28T12:19:40;5.00;;;4.60;;
4311;SDS011;2169;49.086;9.284;2023-02-28T12:22:18;5.37;;;4.10;;
4311;SDS011;2169;49.086;9.284;2023-02-28T12:27:56;6.47;;;4.53;;
4311;SDS011;2169;49.086;9.284;2023-02-28T12:30:25;5.13;;;3.40;;
4311;SDS011;2169;49.086;9.284;2023-02-28T12:32:54;11.53;;;4.97;;
4311;SDS011;2169;49.086;9.284;2023-02-28T12:35:28;4.10;;;3.67;;
4311;SDS011;2169;49.086;9.284;2023-02-28T12:38:02;5.43;;;5.00;;
4311;SDS011;2169;49.086;9.284;2023-02-28T12:40:40;4.10;;;3.90;;
4311;SDS011;2169;49.086;9.284;2023-02-28T12:43:09;11.43;;;6.37;;
4311;SDS011;2169;49.086;9.284;2023-02-28T12:45:42;6.00;;;5.00;;
4311;SDS011;2169;49.086;9.284;2023-02-28T12:48:14;4.90;;;4.40;;
4311;SDS011;2169;49.086;9.284;2023-02-28T12:50:45;5.63;;;5.00;;
4311;SDS011;2169;49.086;9.284;2023-02-28T12:53:15;8.97;;;5.40;;
4311;SDS011;2169;49.086;9.284;2023-02-28T12:55:48;4.50;;;3.63;;
4311;SDS011;2169;49.086;9.284;2023-02-28T12:58:20;10.40;;;5.00;;
4311;SDS011;2169;49.086;9.284;2023-02-28T13:01:02;2.77;;;2.37;;
4311;SDS011;2169;49.086;9.284;2023-02-28T13:03:52;7.20;;;4.77;;
4311;SDS011;2169;49.086;9.284;2023-02-28T13:06:47;5.60;;;5.10;;
4311;SDS011;2169;49.086;9.284;2023-02-28T13:09:25;8.00;;;5.30;;
4311;SDS011;2169;49.086;9.284;2023-02-28T13:11:54;5.23;;;4.00;;
4311;SDS011;2169;49.086;9.284;2023-02-28T13:14:23;17.40;;;4.67;;
4311;SDS011;2169;49.086;9.284;2023-02-28T13:16:57;6.90;;;3.70;;
4311;SDS011;2169;49.086;9.284;2023-02-28T13:19:35;4.43;;;4.00;;
4311;SDS011;2169;49.086;9.284;2023-02-28T13:22:04;4.40;;;3.47;;
4311;SDS011;2169;49.086;9.284;2023-02-28T13:24:43;5.70;;;4.50;;
4311;SDS011;2169;49.086;9.284;2023-02-28T13:30:02;5.00;;;4.60;;
4311;SDS011;2169;49.086;9.284;2023-02-28T13:33:24;8.00;;;4.87;;
4311;SDS011;2169;49.086;9.284;2023-02-28T13:38:54;6.37;;;4.10;;
4311;SDS011;2169;49.086;9.284;2023-02-28T13:41:41;7.80;;;4.60;;
4311;SDS011;2169;49.086;9.284;2023-02-28T13:44:10;8.97;;;5.40;;
4311;SDS011;2169;49.086;9.284;2023-02-28T13:49:39;8.13;;;5.40;;
4311;SDS011;2169;49.086;9.284;2023-02-28T13:52:07;7.37;;;5.27;;
4311;SDS011;2169;49.086;9.284;2023-02-28T13:54:44;5.93;;;4.30;;
4311;SDS011;2169;49.086;9.284;2023-02-28T13:57:23;6.30;;;5.10;;
4311;SDS011;2169;49.086;9.284;2023-02-28T14:00:03;5.27;;;4.73;;
4311;SDS011;2169;49.086;9.284;2023-02-28T14:02:54;7.27;;;4.80;;
4311;SDS011;2169;49.086;9.284;2023-02-28T14:05:41;3.13;;;2.93;;
4311;SDS011;2169;49.086;9.284;2023-02-28T14:08:10;8.00;;;3.33;;
4311;SDS011;2169;49.086;9.284;2023-02-28T14:10:43;6.17;;;4.53;;
4311;SDS011;2169;49.086;9.284;2023-02-28T14:13:13;6.73;;;4.20;;
4311;SDS011;2169;49.086;9.284;2023-02-28T14:15:56;5.87;;;5.30;;
4311;SDS011;2169;49.086;9.284;2023-02-28T14:18:25;7.13;;;6.30;;
4311;SDS011;2169;49.086;9.284;2023-02-28T14:20:57;5.80;;;4.77;;
4311;SDS011;2169;49.086;9.284;2023-02-28T14:26:28;6.53;;;4.60;;
4311;SDS011;2169;49.086;9.284;2023-02-28T14:29:37;7.07;;;5.60;;
4311;SDS011;2169;49.086;9.284;2023-02-28T14:32:26;5.07;;;4.37;;
4311;SDS011;2169;49.086;9.284;2023-02-28T14:34:58;12.00;;;3.70;;
4311;SDS011;2169;49.086;9.284;2023-02-28T14:37:33;13.10;;;6.20;;
4311;SDS011;2169;49.086;9.284;2023-02-28T14:40:11;6.20;;;5.60;;
4311;SDS011;2169;49.086;9.284;2023-02-28T14:42:46;5.60;;;3.63;;
4311;SDS011;2169;49.086;9.284;2023-02-28T14:45:17;5.60;;;3.80;;
4311;SDS011;2169;49.086;9.284;2023-02-28T14:47:45;7.43;;;5.20;;
4311;SDS011;2169;49.086;9.284;2023-02-28T14:50:17;8.20;;;4.23;;
4311;SDS011;2169;49.086;9.284;2023-02-28T14:52:46;7.27;;;5.67;;
4311;SDS011;2169;49.086;9.284;2023-02-28T14:55:16;7.33;;;5.40;;
4311;SDS011;2169;49.086;9.284;2023-02-28T14:57:50;2.50;;;2.30;;
4311;SDS011;2169;49.086;9.284;2023-02-28T15:00:21;5.60;;;3.83;;
4311;SDS011;2169;49.086;9.284;2023-02-28T15:02:49;11.70;;;5.73;;
4311;SDS011;2169;49.086;9.284;2023-02-28T15:05:19;15.23;;;6.40;;
4311;SDS011;2169;49.086;9.284;2023-02-28T15:08:03;7.23;;;5.27;;
4311;SDS011;2169;49.086;9.284;2023-02-28T15:10:34;2.80;;;2.53;;
4311;SDS011;2169;49.086;9.284;2023-02-28T15:13:02;5.50;;;5.10;;
4311;SDS011;2169;49.086;9.284;2023-02-28T15:15:35;8.33;;;4.33;;
4311;SDS011;2169;49.086;9.284;2023-02-28T15:18:07;31.27;;;5.70;;
4311;SDS011;2169;49.086;9.284;2023-02-28T15:20:41;8.60;;;5.20;;
4311;SDS011;2169;49.086;9.284;2023-02-28T15:23:11;10.80;;;4.93;;
4311;SDS011;2169;49.086;9.284;2023-02-28T15:25:38;6.67;;;6.00;;
4311;SDS011;2169;49.086;9.284;2023-02-28T15:28:09;6.70;;;5.80;;
4311;SDS011;2169;49.086;9.284;2023-02-28T15:30:50;12.87;;;5.20;;
4311;SDS011;2169;49.086;9.284;2023-02-28T15:33:19;5.50;;;5.00;;
4311;SDS011;2169;49.086;9.284;2023-02-28T15:35:48;6.70;;;4.50;;
4311;SDS011;2169;49.086;9.284;2023-02-28T15:38:18;12.87;;;5.10;;
4311;SDS011;2169;49.086;9.284;2023-02-28T15:40:51;8.03;;;4.23;;
4311;SDS011;2169;49.086;9.284;2023-02-28T15:43:25;12.30;;;4.40;;
4311;SDS011;2169;49.086;9.284;2023-02-28T15:45:55;14.13;;;5.37;;
4311;SDS011;2169;49.086;9.284;2023-02-28T15:48:24;9.23;;;5.00;;
4311;SDS011;2169;49.086;9.284;2023-02-28T15:50:54;7.53;;;4.77;;
4311;SDS011;2169;49.086;9.284;2023-02-28T15:53:25;4.97;;;4.40;;
4311;SDS011;2169;49.086;9.284;2023-02-28T15:55:55;4.50;;;4.20;;
4311;SDS011;2169;49.086;9.284;2023-02-28T15:58:26;4.10;;;3.80;;
4311;SDS011;2169;49.086;9.284;2023-02-28T16:01:00;25.03;;;6.10;;